createdAt,value
2023-02-13T00:00:30.530Z,4.75
2023-02-13T00:01:30.539Z,4.75
2023-02-13T00:02:30.517Z,4.72
2023-02-13T00:03:30.544Z,4.75
2023-02-13T00:04:30.496Z,4.74
2023-02-13T00:05:30.525Z,4.74
2023-02-13T00:06:30.441Z,4.74
2023-02-13T00:07:30.438Z,4.72
2023-02-13T00:08:30.515Z,4.71
2023-02-13T00:09:30.425Z,4.72
2023-02-13T00:10:30.404Z,4.69
2023-02-13T00:11:30.398Z,4.72
2023-02-13T00:12:30.371Z,4.66
2023-02-13T00:13:30.395Z,4.67
2023-02-13T00:14:30.335Z,4.63
2023-02-13T00:15:30.354Z,4.66
2023-02-13T00:16:30.323Z,4.63
2023-02-13T00:17:30.323Z,4.57
2023-02-13T00:18:30.334Z,4.61
2023-02-13T00:19:30.286Z,4.61
2023-02-13T00:20:30.266Z,4.56
2023-02-13T00:21:30.248Z,4.57
2023-02-13T00:22:30.262Z,4.57
2023-02-13T00:23:30.216Z,4.53
2023-02-13T00:24:30.229Z,4.53
2023-02-13T00:25:30.241Z,4.57
2023-02-13T00:26:30.185Z,4.49
2023-02-13T00:27:30.167Z,4.46
2023-02-13T00:28:30.219Z,4.46
2023-02-13T00:29:30.185Z,4.48
2023-02-13T00:30:30.139Z,4.43
2023-02-13T00:31:30.165Z,4.45
2023-02-13T00:32:30.146Z,4.43
2023-02-13T00:33:30.089Z,4.49
2023-02-13T00:34:30.145Z,4.49
2023-02-13T00:35:30.067Z,4.54
2023-02-13T00:36:30.064Z,4.51
2023-02-13T00:37:30.046Z,4.53
2023-02-13T00:38:30.035Z,4.53
2023-02-13T00:39:30.095Z,4.56
2023-02-13T00:40:30.024Z,4.57
2023-02-13T00:41:29.977Z,4.59
2023-02-13T00:42:29.972Z,4.54
2023-02-13T00:43:30.000Z,4.57
2023-02-13T00:44:29.977Z,4.54
2023-02-13T00:45:29.938Z,4.49
2023-02-13T00:46:29.956Z,4.46
2023-02-13T00:47:29.923Z,4.51
2023-02-13T00:48:30.449Z,4.54
2023-02-13T00:49:29.885Z,4.53
2023-02-13T00:50:29.867Z,4.53
2023-02-13T00:51:29.860Z,4.53
2023-02-13T00:52:29.847Z,4.51
2023-02-13T00:53:29.825Z,4.53
2023-02-13T00:54:29.953Z,4.51
2023-02-13T00:55:29.802Z,4.48
2023-02-13T00:56:29.798Z,4.51
2023-02-13T00:57:29.826Z,4.45
2023-02-13T00:58:29.801Z,4.45
2023-02-13T00:59:29.781Z,4.45
2023-02-13T01:00:29.736Z,4.43
2023-02-13T01:01:29.810Z,4.43
2023-02-13T01:02:29.721Z,4.43
2023-02-13T01:03:29.823Z,4.46
2023-02-13T01:04:29.767Z,4.46
2023-02-13T01:05:29.667Z,4.46
2023-02-13T01:06:29.660Z,4.43
2023-02-13T01:07:29.677Z,4.43
2023-02-13T01:08:29.633Z,4.43
2023-02-13T01:09:29.639Z,4.41
2023-02-13T01:10:29.648Z,4.45
2023-02-13T01:11:29.612Z,4.41
2023-02-13T01:12:29.601Z,4.42
2023-02-13T01:13:29.637Z,4.42
2023-02-13T01:14:29.588Z,4.42
2023-02-13T01:15:29.553Z,4.43
2023-02-13T01:16:29.551Z,4.43
2023-02-13T01:17:29.560Z,4.48
2023-02-13T01:18:29.503Z,4.48
2023-02-13T01:19:29.523Z,4.48
2023-02-13T01:20:29.514Z,4.43
2023-02-13T01:21:29.464Z,4.43
2023-02-13T01:22:29.462Z,4.45
2023-02-13T01:23:29.458Z,4.42
2023-02-13T01:24:29.472Z,4.41
2023-02-13T01:25:29.426Z,4.42
2023-02-13T01:26:29.437Z,4.35
2023-02-13T01:27:29.392Z,4.39
2023-02-13T01:28:29.528Z,4.41
2023-02-13T01:29:29.385Z,4.39
2023-02-13T01:30:29.353Z,4.39
2023-02-13T01:31:29.451Z,4.39
2023-02-13T01:32:29.398Z,4.41
2023-02-13T01:33:29.323Z,4.39
2023-02-13T01:34:29.351Z,4.38
2023-02-13T01:35:29.307Z,4.30
2023-02-13T01:36:29.276Z,4.28
2023-02-13T01:37:29.258Z,4.30
2023-02-13T01:38:29.277Z,4.34
2023-02-13T01:39:29.253Z,4.34
2023-02-13T01:40:29.227Z,4.26
2023-02-13T01:41:29.236Z,4.28
2023-02-13T01:42:29.198Z,4.26
2023-02-13T01:43:29.176Z,4.26
2023-02-13T01:44:29.211Z,4.23
2023-02-13T01:45:29.170Z,4.21
2023-02-13T01:46:29.191Z,4.21
2023-02-13T01:47:29.124Z,4.24
2023-02-13T01:48:31.515Z,4.23
2023-02-13T01:49:29.155Z,4.24
2023-02-13T01:50:29.090Z,4.17
2023-02-13T01:51:29.106Z,4.17
2023-02-13T01:52:29.077Z,4.17
2023-02-13T01:53:29.060Z,4.16
2023-02-13T01:54:29.048Z,4.10
2023-02-13T01:55:29.083Z,4.12
2023-02-13T01:56:29.007Z,4.10
2023-02-13T01:57:28.996Z,4.13
2023-02-13T01:58:29.018Z,4.16
2023-02-13T01:59:28.997Z,4.13
2023-02-13T02:00:28.970Z,4.10
2023-02-13T02:01:28.993Z,4.10
2023-02-13T02:02:29.010Z,4.12
2023-02-13T02:03:28.920Z,4.09
2023-02-13T02:04:29.018Z,4.10
2023-02-13T02:05:28.934Z,4.10
2023-02-13T02:06:28.901Z,4.10
2023-02-13T02:07:28.921Z,4.09
2023-02-13T02:08:28.863Z,4.12
2023-02-13T02:09:28.841Z,4.17
2023-02-13T02:10:28.915Z,4.13
2023-02-13T02:11:28.814Z,4.10
2023-02-13T02:12:28.812Z,4.10
2023-02-13T02:13:28.818Z,4.09
2023-02-13T02:14:28.780Z,4.10
2023-02-13T02:15:28.788Z,4.03
2023-02-13T02:16:28.835Z,4.03
2023-02-13T02:17:28.744Z,4.03
2023-02-13T02:18:28.730Z,4.06
2023-02-13T02:19:28.737Z,4.00
2023-02-13T02:20:28.733Z,4.03
2023-02-13T02:21:28.718Z,4.02
2023-02-13T02:22:28.685Z,4.00
2023-02-13T02:23:28.700Z,4.02
2023-02-13T02:24:28.669Z,4.03
2023-02-13T02:25:28.657Z,4.05
2023-02-13T02:26:28.659Z,4.03
2023-02-13T02:27:28.615Z,4.03
2023-02-13T02:28:28.663Z,4.03
2023-02-13T02:29:28.613Z,4.03
2023-02-13T02:30:28.666Z,4.05
2023-02-13T02:31:28.609Z,4.00
2023-02-13T02:32:28.631Z,3.96
2023-02-13T02:33:28.538Z,3.96
2023-02-13T02:34:28.540Z,3.98
2023-02-13T02:35:28.564Z,3.88
2023-02-13T02:36:28.502Z,3.91
2023-02-13T02:37:28.496Z,3.92
2023-02-13T02:38:28.498Z,3.88
2023-02-13T02:39:28.463Z,3.92
2023-02-13T02:40:28.495Z,3.92
2023-02-13T02:41:28.432Z,3.94
2023-02-13T02:42:28.454Z,3.92
2023-02-13T02:43:28.453Z,3.87
2023-02-13T02:44:28.399Z,3.88
2023-02-13T02:45:28.487Z,3.92
2023-02-13T02:46:28.427Z,3.92
2023-02-13T02:47:28.374Z,3.84
2023-02-13T02:48:28.407Z,3.87
2023-02-13T02:49:28.333Z,3.85
2023-02-13T02:50:28.373Z,3.84
2023-02-13T02:51:28.327Z,3.85
2023-02-13T02:52:28.353Z,3.80
2023-02-13T02:53:28.276Z,3.74
2023-02-13T02:54:28.270Z,3.78
2023-02-13T02:55:28.306Z,3.76
2023-02-13T02:56:29.440Z,3.70
2023-02-13T02:57:28.233Z,3.72
2023-02-13T02:58:28.267Z,3.76
2023-02-13T02:59:28.206Z,3.74
2023-02-13T03:00:28.216Z,3.73
2023-02-13T03:01:28.222Z,3.76
2023-02-13T03:02:28.155Z,3.76
2023-02-13T03:03:28.152Z,3.76
2023-02-13T03:04:28.221Z,3.74
2023-02-13T03:05:28.125Z,3.72
2023-02-13T03:06:28.133Z,3.73
2023-02-13T03:07:28.166Z,3.73
2023-02-13T03:08:28.087Z,3.69
2023-02-13T03:09:28.065Z,3.69
2023-02-13T03:10:28.049Z,3.69
2023-02-13T03:11:28.074Z,3.69
2023-02-13T03:12:28.039Z,3.73
2023-02-13T03:13:28.026Z,3.72
2023-02-13T03:14:28.049Z,3.73
2023-02-13T03:15:28.030Z,3.74
2023-02-13T03:16:28.040Z,3.72
2023-02-13T03:17:27.966Z,3.72
2023-02-13T03:18:27.991Z,3.69
2023-02-13T03:19:27.951Z,3.69
2023-02-13T03:20:27.923Z,3.66
2023-02-13T03:21:28.022Z,3.69
2023-02-13T03:22:27.910Z,3.67
2023-02-13T03:23:27.894Z,3.66
2023-02-13T03:24:27.874Z,3.67
2023-02-13T03:25:27.904Z,3.64
2023-02-13T03:26:27.863Z,3.63
2023-02-13T03:27:27.839Z,3.66
2023-02-13T03:28:27.976Z,3.67
2023-02-13T03:29:27.810Z,3.67
2023-02-13T03:30:27.818Z,3.63
2023-02-13T03:31:27.817Z,3.59
2023-02-13T03:32:27.780Z,3.59
2023-02-13T03:33:27.772Z,3.56
2023-02-13T03:34:27.746Z,3.59
2023-02-13T03:35:27.801Z,3.54
2023-02-13T03:36:27.716Z,3.51
2023-02-13T03:37:27.717Z,3.51
2023-02-13T03:38:27.716Z,3.51
2023-02-13T03:39:27.705Z,3.54
2023-02-13T03:40:27.690Z,3.52
2023-02-13T03:41:27.690Z,3.56
2023-02-13T03:42:29.075Z,3.55
2023-02-13T03:43:27.628Z,3.56
2023-02-13T03:44:27.654Z,3.59
2023-02-13T03:45:27.777Z,3.54
2023-02-13T03:46:27.606Z,3.52
2023-02-13T03:47:27.648Z,3.52
2023-02-13T03:48:27.583Z,3.60
2023-02-13T03:49:27.584Z,3.56
2023-02-13T03:50:27.552Z,3.54
2023-02-13T03:51:27.538Z,3.59
2023-02-13T03:52:27.536Z,3.62
2023-02-13T03:53:27.507Z,3.59
2023-02-13T03:54:27.526Z,3.59
2023-02-13T03:55:27.513Z,3.54
2023-02-13T03:56:27.466Z,3.54
2023-02-13T03:57:27.466Z,3.56
2023-02-13T03:58:27.438Z,3.56
2023-02-13T03:59:27.425Z,3.56
2023-02-13T04:00:27.447Z,3.52
2023-02-13T04:01:27.482Z,3.55
2023-02-13T04:02:27.476Z,3.55
2023-02-13T04:03:27.424Z,3.54
2023-02-13T04:04:27.366Z,3.51
2023-02-13T04:05:27.344Z,3.55
2023-02-13T04:06:27.391Z,3.59
2023-02-13T04:07:27.329Z,3.55
2023-02-13T04:08:27.299Z,3.54
2023-02-13T04:09:27.323Z,3.54
2023-02-13T04:10:27.337Z,3.55
2023-02-13T04:11:27.411Z,3.54
2023-02-13T04:12:27.255Z,3.55
2023-02-13T04:13:27.252Z,3.54
2023-02-13T04:14:27.228Z,3.56
2023-02-13T04:15:27.252Z,3.59
2023-02-13T04:16:27.271Z,3.55
2023-02-13T04:17:27.202Z,3.55
2023-02-13T04:18:27.224Z,3.54
2023-02-13T04:19:27.170Z,3.52
2023-02-13T04:20:27.162Z,3.51
2023-02-13T04:21:27.134Z,3.51
2023-02-13T04:22:27.149Z,3.46
2023-02-13T04:23:27.155Z,3.51
2023-02-13T04:24:27.097Z,3.48
2023-02-13T04:25:27.133Z,3.45
2023-02-13T04:26:27.073Z,3.48
2023-02-13T04:27:27.067Z,3.49
2023-02-13T04:28:27.089Z,3.48
2023-02-13T04:29:27.162Z,3.51
2023-02-13T04:30:27.039Z,3.48
2023-02-13T04:31:27.168Z,3.46
2023-02-13T04:32:27.000Z,3.48
2023-02-13T04:33:27.004Z,3.42
2023-02-13T04:34:27.016Z,3.37
2023-02-13T04:35:26.967Z,3.41
2023-02-13T04:36:26.980Z,3.41
2023-02-13T04:37:26.946Z,3.41
2023-02-13T04:38:26.923Z,3.42
2023-02-13T04:39:26.936Z,3.41
2023-02-13T04:40:26.928Z,3.41
2023-02-13T04:41:26.922Z,3.37
2023-02-13T04:42:26.889Z,3.37
2023-02-13T04:43:26.911Z,3.35
2023-02-13T04:44:26.856Z,3.35
2023-02-13T04:45:26.860Z,3.32
2023-02-13T04:46:26.891Z,3.27
2023-02-13T04:47:26.821Z,3.26
2023-02-13T04:48:26.815Z,3.30
2023-02-13T04:49:26.867Z,3.27
2023-02-13T04:50:26.786Z,3.29
2023-02-13T04:51:26.760Z,3.27
2023-02-13T04:52:26.756Z,3.23
2023-02-13T04:53:27.001Z,3.23
2023-02-13T04:54:26.723Z,3.20
2023-02-13T04:55:26.712Z,3.18
2023-02-13T04:56:26.692Z,3.20
2023-02-13T04:57:26.688Z,3.20
2023-02-13T04:58:26.706Z,3.26
2023-02-13T04:59:26.662Z,3.25
2023-02-13T05:00:26.645Z,3.22
2023-02-13T05:01:26.688Z,3.17
2023-02-13T05:02:26.633Z,3.14
2023-02-13T05:03:26.613Z,3.20
2023-02-13T05:04:26.619Z,3.17
2023-02-13T05:05:26.595Z,3.18
2023-02-13T05:06:26.567Z,3.18
2023-02-13T05:07:26.577Z,3.17
2023-02-13T05:08:26.572Z,3.14
2023-02-13T05:09:26.545Z,3.17
2023-02-13T05:10:26.515Z,3.17
2023-02-13T05:11:26.530Z,3.18
2023-02-13T05:12:26.501Z,3.17
2023-02-13T05:13:26.479Z,3.18
2023-02-13T05:14:26.480Z,3.17
2023-02-13T05:15:26.590Z,3.14
2023-02-13T05:16:26.443Z,3.18
2023-02-13T05:17:28.275Z,3.14
2023-02-13T05:18:26.411Z,3.17
2023-02-13T05:19:26.414Z,3.18
2023-02-13T05:20:26.448Z,3.15
2023-02-13T05:21:26.383Z,3.17
2023-02-13T05:22:26.385Z,3.15
2023-02-13T05:23:26.357Z,3.15
2023-02-13T05:24:26.345Z,3.12
2023-02-13T05:25:26.316Z,3.14
2023-02-13T05:26:26.318Z,3.09
2023-02-13T05:27:26.323Z,3.08
2023-02-13T05:28:26.381Z,3.08
2023-02-13T05:29:26.390Z,3.08
2023-02-13T05:30:26.317Z,3.05
2023-02-13T05:31:26.318Z,3.04
2023-02-13T05:32:26.313Z,3.04
2023-02-13T05:33:26.220Z,3.02
2023-02-13T05:34:26.279Z,3.04
2023-02-13T05:35:26.189Z,3.00
2023-02-13T05:36:26.192Z,3.00
2023-02-13T05:37:26.180Z,2.97
2023-02-13T05:38:26.189Z,2.96
2023-02-13T05:39:26.169Z,2.96
2023-02-13T05:40:26.119Z,2.93
2023-02-13T05:41:26.158Z,2.91
2023-02-13T05:42:26.121Z,2.87
2023-02-13T05:43:26.096Z,2.91
2023-02-13T05:44:26.074Z,2.89
2023-02-13T05:45:26.080Z,2.90
2023-02-13T05:46:26.076Z,2.87
2023-02-13T05:47:26.182Z,2.91
2023-02-13T05:48:26.027Z,2.90
2023-02-13T05:49:26.020Z,2.90
2023-02-13T05:50:26.007Z,2.91
2023-02-13T05:51:26.002Z,2.96
2023-02-13T05:52:26.009Z,2.94
2023-02-13T05:53:25.979Z,2.97
2023-02-13T05:54:25.960Z,2.94
2023-02-13T05:55:25.933Z,2.97
2023-02-13T05:56:25.924Z,2.97
2023-02-13T05:57:25.922Z,2.96
2023-02-13T05:58:25.923Z,2.94
2023-02-13T05:59:25.898Z,2.93
2023-02-13T06:00:25.884Z,2.93
2023-02-13T06:01:25.869Z,2.94
2023-02-13T06:02:25.894Z,2.90
2023-02-13T06:03:25.913Z,2.91
2023-02-13T06:04:25.837Z,2.93
2023-02-13T06:05:25.846Z,2.91
2023-02-13T06:06:25.796Z,2.90
2023-02-13T06:07:25.854Z,2.87
2023-02-13T06:08:25.777Z,2.87
2023-02-13T06:09:25.708Z,2.89
2023-02-13T06:10:25.758Z,2.87
2023-02-13T06:11:25.690Z,2.86
2023-02-13T06:12:25.660Z,2.86
2023-02-13T06:13:25.674Z,2.84
2023-02-13T06:14:25.616Z,2.79
2023-02-13T06:15:25.687Z,2.78
2023-02-13T06:16:25.651Z,2.78
2023-02-13T06:17:25.656Z,2.75
2023-02-13T06:18:25.604Z,2.72
2023-02-13T06:19:25.583Z,2.68
2023-02-13T06:20:25.600Z,2.66
2023-02-13T06:21:25.552Z,2.65
2023-02-13T06:22:25.635Z,2.68
2023-02-13T06:23:25.536Z,2.65
2023-02-13T06:24:25.502Z,2.65
2023-02-13T06:25:25.524Z,2.61
2023-02-13T06:26:25.482Z,2.63
2023-02-13T06:27:25.557Z,2.65
2023-02-13T06:28:25.569Z,2.65
2023-02-13T06:29:25.444Z,2.63
2023-02-13T06:30:25.576Z,2.63
2023-02-13T06:31:25.599Z,2.60
2023-02-13T06:32:25.410Z,2.58
2023-02-13T06:33:25.406Z,2.58
2023-02-13T06:34:25.382Z,2.58
2023-02-13T06:35:25.368Z,2.58
2023-02-13T06:36:25.380Z,2.54
2023-02-13T06:37:25.344Z,2.60
2023-02-13T06:38:25.346Z,2.61
2023-02-13T06:39:25.326Z,2.61
2023-02-13T06:40:25.300Z,2.63
2023-02-13T06:41:25.299Z,2.60
2023-02-13T06:42:25.281Z,2.63
2023-02-13T06:43:25.291Z,2.66
2023-02-13T06:44:25.262Z,2.65
2023-02-13T06:45:25.242Z,2.66
2023-02-13T06:46:25.295Z,2.63
2023-02-13T06:47:25.214Z,2.66
2023-02-13T06:48:25.231Z,2.65
2023-02-13T06:49:25.185Z,2.66
2023-02-13T06:50:25.165Z,2.68
2023-02-13T06:51:25.173Z,2.68
2023-02-13T06:52:25.150Z,2.71
2023-02-13T06:53:25.177Z,2.72
2023-02-13T06:54:41.053Z,2.73
2023-02-13T06:55:25.110Z,2.78
2023-02-13T06:56:25.111Z,2.73
2023-02-13T06:57:25.081Z,2.75
2023-02-13T06:58:25.115Z,2.78
2023-02-13T06:59:25.089Z,2.79
2023-02-13T07:00:26.249Z,2.82
2023-02-13T07:01:25.208Z,2.82
2023-02-13T07:02:25.042Z,2.84
2023-02-13T07:03:25.000Z,2.91
2023-02-13T07:04:25.001Z,2.90
2023-02-13T07:05:25.265Z,2.87
2023-02-13T07:06:24.982Z,2.87
2023-02-13T07:07:24.953Z,2.90
2023-02-13T07:08:24.979Z,2.90
2023-02-13T07:09:24.950Z,2.91
2023-02-13T07:10:25.130Z,2.93
2023-02-13T07:11:24.923Z,2.87
2023-02-13T07:12:24.903Z,2.87
2023-02-13T07:13:24.895Z,2.89
2023-02-13T07:14:24.910Z,2.87
2023-02-13T07:15:24.881Z,2.91
2023-02-13T07:16:24.911Z,2.87
2023-02-13T07:17:24.849Z,2.89
2023-02-13T07:18:24.928Z,2.86
2023-02-13T07:19:24.810Z,2.84
2023-02-13T07:20:24.811Z,2.89
2023-02-13T07:21:24.802Z,2.86
2023-02-13T07:22:24.773Z,2.86
2023-02-13T07:23:24.753Z,2.90
2023-02-13T07:24:24.765Z,2.90
2023-02-13T07:25:24.737Z,2.89
2023-02-13T07:26:24.749Z,2.91
2023-02-13T07:27:24.686Z,2.91
2023-02-13T07:28:24.717Z,2.94
2023-02-13T07:29:24.690Z,2.93
2023-02-13T07:30:24.725Z,2.99
2023-02-13T07:31:24.831Z,2.94
2023-02-13T07:32:24.642Z,2.97
2023-02-13T07:33:24.617Z,2.99
2023-02-13T07:34:24.627Z,3.00
2023-02-13T07:35:24.616Z,3.00
2023-02-13T07:36:24.586Z,3.04
2023-02-13T07:37:24.567Z,3.04
2023-02-13T07:38:24.569Z,3.04
2023-02-13T07:39:24.561Z,3.05
2023-02-13T07:40:24.554Z,3.05
2023-02-13T07:41:24.540Z,3.04
2023-02-13T07:42:24.516Z,3.09
2023-02-13T07:43:24.513Z,3.07
2023-02-13T07:44:24.557Z,3.04
2023-02-13T07:45:24.530Z,3.05
2023-02-13T07:46:24.478Z,3.05
2023-02-13T07:47:24.447Z,3.07
2023-02-13T07:48:24.452Z,3.09
2023-02-13T07:49:24.415Z,3.07
2023-02-13T07:50:24.443Z,3.11
2023-02-13T07:51:24.393Z,3.15
2023-02-13T07:52:24.479Z,3.11
2023-02-13T07:53:24.405Z,3.09
2023-02-13T07:54:24.363Z,3.15
2023-02-13T07:55:24.332Z,3.14
2023-02-13T07:56:24.339Z,3.15
2023-02-13T07:57:24.320Z,3.17
2023-02-13T07:58:24.344Z,3.20
2023-02-13T07:59:24.279Z,3.25
2023-02-13T08:00:24.308Z,3.25
2023-02-13T08:01:24.359Z,3.22
2023-02-13T08:02:24.261Z,3.23
2023-02-13T08:03:24.627Z,3.25
2023-02-13T08:04:26.353Z,3.30
2023-02-13T08:05:24.246Z,3.33
2023-02-13T08:06:24.202Z,3.29
2023-02-13T08:07:24.188Z,3.33
2023-02-13T08:08:24.183Z,3.36
2023-02-13T08:09:24.202Z,3.33
2023-02-13T08:10:24.175Z,3.33
2023-02-13T08:11:24.141Z,3.37
2023-02-13T08:12:24.137Z,3.42
2023-02-13T08:13:24.128Z,3.42
2023-02-13T08:14:24.087Z,3.45
2023-02-13T08:15:24.087Z,3.41
2023-02-13T08:16:24.165Z,3.36
2023-02-13T08:17:24.052Z,3.44
2023-02-13T08:18:24.047Z,3.41
2023-02-13T08:19:24.032Z,3.42
2023-02-13T08:20:24.036Z,3.48
2023-02-13T08:21:24.046Z,3.54
2023-02-13T08:22:23.994Z,3.46
2023-02-13T08:23:24.022Z,3.49
2023-02-13T08:24:23.992Z,3.48
2023-02-13T08:25:23.946Z,3.51
2023-02-13T08:26:24.024Z,3.55
2023-02-13T08:27:23.927Z,3.51
2023-02-13T08:28:23.965Z,3.55
2023-02-13T08:29:24.192Z,3.52
2023-02-13T08:30:23.904Z,3.52
2023-02-13T08:31:24.001Z,3.59
2023-02-13T08:32:23.972Z,3.67
2023-02-13T08:33:23.841Z,3.70
2023-02-13T08:34:23.880Z,3.72
2023-02-13T08:35:23.829Z,3.72
2023-02-13T08:36:23.835Z,3.78
2023-02-13T08:37:23.807Z,3.78
2023-02-13T08:38:23.796Z,3.82
2023-02-13T08:39:23.802Z,3.80
2023-02-13T08:40:25.445Z,3.85
2023-02-13T08:41:23.772Z,3.88
2023-02-13T08:42:23.806Z,3.91
2023-02-13T08:43:23.714Z,4.00
2023-02-13T08:44:23.710Z,3.94
2023-02-13T08:45:23.708Z,3.96
2023-02-13T08:46:23.754Z,3.99
2023-02-13T08:47:23.684Z,3.94
2023-02-13T08:48:23.651Z,4.00
2023-02-13T08:49:23.653Z,3.99
2023-02-13T08:50:23.625Z,4.00
2023-02-13T08:51:23.641Z,4.03
2023-02-13T08:52:23.596Z,4.06
2023-02-13T08:53:23.603Z,4.18
2023-02-13T08:54:23.597Z,4.23
2023-02-13T08:55:23.602Z,4.23
2023-02-13T08:56:23.582Z,4.28
2023-02-13T08:57:23.531Z,4.35
2023-02-13T08:58:23.528Z,4.54
2023-02-13T08:59:23.527Z,4.69
2023-02-13T09:00:23.528Z,4.75
2023-02-13T09:01:23.562Z,4.82
2023-02-13T09:02:23.517Z,4.96
2023-02-13T09:03:23.468Z,4.98
2023-02-13T09:04:23.461Z,5.06
2023-02-13T09:05:23.463Z,5.07
2023-02-13T09:06:23.802Z,5.19
2023-02-13T09:07:23.423Z,5.22
2023-02-13T09:08:23.428Z,5.39
2023-02-13T09:09:23.383Z,5.47
2023-02-13T09:10:23.430Z,5.50
2023-02-13T09:11:23.441Z,5.37
2023-02-13T09:12:29.838Z,5.22
2023-02-13T09:13:23.454Z,5.06
2023-02-13T09:14:24.952Z,4.82
2023-02-13T09:15:23.313Z,4.77
2023-02-13T09:16:23.303Z,4.71
2023-02-13T09:17:23.336Z,4.66
2023-02-13T09:18:23.274Z,4.61
2023-02-13T09:19:23.236Z,4.60
2023-02-13T09:20:23.320Z,4.61
2023-02-13T09:21:23.280Z,4.71
2023-02-13T09:22:23.208Z,4.72
2023-02-13T09:23:23.251Z,4.75
2023-02-13T09:24:23.197Z,4.88
2023-02-13T09:25:23.165Z,4.89
2023-02-13T09:26:23.201Z,4.89
2023-02-13T09:27:23.202Z,4.88
2023-02-13T09:28:23.235Z,4.82
2023-02-13T09:29:23.142Z,4.78
2023-02-13T09:30:23.154Z,4.71
2023-02-13T09:31:23.245Z,4.71
2023-02-13T09:32:23.098Z,4.66
2023-02-13T09:33:23.080Z,4.75
2023-02-13T09:34:23.103Z,4.78
2023-02-13T09:35:23.041Z,4.88
2023-02-13T09:36:23.054Z,4.98
2023-02-13T09:37:23.008Z,5.07
2023-02-13T09:38:23.019Z,5.22
2023-02-13T09:39:23.006Z,5.29
2023-02-13T09:40:23.094Z,5.39
2023-02-13T09:41:22.961Z,5.44
2023-02-13T09:42:22.965Z,5.50
2023-02-13T09:43:22.958Z,5.54
2023-02-13T09:44:24.867Z,5.58
2023-02-13T09:45:23.629Z,5.57
2023-02-13T09:46:23.124Z,5.57
2023-02-13T09:47:22.888Z,5.57
2023-02-13T09:48:22.941Z,5.62
2023-02-13T09:49:22.868Z,5.67
2023-02-13T09:50:23.766Z,5.75
2023-02-13T09:51:23.134Z,5.87
2023-02-13T09:52:22.881Z,5.93
2023-02-13T09:53:22.893Z,5.93
2023-02-13T09:54:26.932Z,6.02
2023-02-13T09:55:24.828Z,6.03
2023-02-13T09:56:23.131Z,6.06
2023-02-13T09:57:23.924Z,6.13
2023-02-13T09:58:23.800Z,6.25
2023-02-13T09:59:23.265Z,6.27
2023-02-13T10:00:22.960Z,6.27
2023-02-13T10:01:25.715Z,6.35
2023-02-13T10:02:24.878Z,6.47
2023-02-13T10:03:23.300Z,6.60
2023-02-13T10:04:24.156Z,6.67
2023-02-13T10:05:23.909Z,6.74
2023-02-13T10:06:24.283Z,6.82
2023-02-13T10:07:23.320Z,6.81
2023-02-13T10:08:24.124Z,6.74
2023-02-13T10:09:25.754Z,6.73
2023-02-13T10:10:23.222Z,6.67
2023-02-13T10:11:25.555Z,6.61
2023-02-13T10:12:24.268Z,6.64
2023-02-13T10:13:23.847Z,6.74
2023-02-13T10:14:24.117Z,6.70
2023-02-13T10:15:23.536Z,6.71
2023-02-13T10:16:25.030Z,6.75
2023-02-13T10:17:24.967Z,6.85
2023-02-13T10:18:23.345Z,6.88
2023-02-13T10:19:22.477Z,6.91
2023-02-13T10:20:22.474Z,6.88
2023-02-13T10:21:23.276Z,7.00
2023-02-13T10:22:22.425Z,7.08
2023-02-13T10:23:22.434Z,7.04
2023-02-13T10:24:22.447Z,6.97
2023-02-13T10:25:22.391Z,6.93
2023-02-13T10:26:22.396Z,6.88
2023-02-13T10:27:22.412Z,6.97
2023-02-13T10:28:22.392Z,7.01
2023-02-13T10:29:22.829Z,7.07
2023-02-13T10:30:26.290Z,7.15
2023-02-13T10:31:22.748Z,7.26
2023-02-13T10:32:22.819Z,7.24
2023-02-13T10:33:22.273Z,7.19
2023-02-13T10:34:22.284Z,7.21
2023-02-13T10:35:22.330Z,7.29
2023-02-13T10:36:22.265Z,7.31
2023-02-13T10:37:22.242Z,7.29
2023-02-13T10:38:22.283Z,7.31
2023-02-13T10:39:22.228Z,7.33
2023-02-13T10:40:22.193Z,7.42
2023-02-13T10:41:22.201Z,7.43
2023-02-13T10:42:22.183Z,7.44
2023-02-13T10:43:22.156Z,7.43
2023-02-13T10:44:22.145Z,7.52
2023-02-13T10:45:22.176Z,7.60
2023-02-13T10:46:22.172Z,7.68
2023-02-13T10:47:22.126Z,7.78
2023-02-13T10:48:22.151Z,7.84
2023-02-13T10:49:22.083Z,7.98
2023-02-13T10:50:22.071Z,8.09
2023-02-13T10:51:22.313Z,8.05
2023-02-13T10:52:22.072Z,7.99
2023-02-13T10:53:22.044Z,7.95
2023-02-13T10:54:22.064Z,8.02
2023-02-13T10:55:22.027Z,8.12
2023-02-13T10:56:22.037Z,8.19
2023-02-13T10:57:22.016Z,8.23
2023-02-13T10:58:21.957Z,8.32
2023-02-13T10:59:21.961Z,8.35
2023-02-13T11:00:21.963Z,8.32
2023-02-13T11:01:21.928Z,8.26
2023-02-13T11:02:25.313Z,8.23
2023-02-13T11:03:22.511Z,8.31
2023-02-13T11:04:21.966Z,8.32
2023-02-13T11:05:21.868Z,8.42
2023-02-13T11:06:21.878Z,8.53
2023-02-13T11:07:21.851Z,8.50
2023-02-13T11:08:21.838Z,8.50
2023-02-13T11:09:21.910Z,8.52
2023-02-13T11:10:22.488Z,8.57
2023-02-13T11:11:21.811Z,8.57
2023-02-13T11:12:21.962Z,8.67
2023-02-13T11:13:21.851Z,8.67
2023-02-13T11:14:21.774Z,8.78
2023-02-13T11:15:21.921Z,8.75
2023-02-13T11:16:21.816Z,8.81
2023-02-13T11:17:21.710Z,8.89
2023-02-13T11:18:21.698Z,8.93
2023-02-13T11:19:21.690Z,8.95
2023-02-13T11:20:21.697Z,8.99
2023-02-13T11:21:21.664Z,9.01
2023-02-13T11:22:22.088Z,9.11
2023-02-13T11:23:21.644Z,9.12
2023-02-13T11:24:21.654Z,9.18
2023-02-13T11:25:22.024Z,9.22
2023-02-13T11:26:21.685Z,9.30
2023-02-13T11:27:22.268Z,9.23
2023-02-13T11:28:21.616Z,9.18
2023-02-13T11:29:21.545Z,9.22
2023-02-13T11:30:21.568Z,9.22
2023-02-13T11:31:21.660Z,9.22
2023-02-13T11:32:21.590Z,9.11
2023-02-13T11:33:21.495Z,9.14
2023-02-13T11:34:21.508Z,9.19
2023-02-13T11:35:21.475Z,9.24
2023-02-13T11:36:21.477Z,9.29
2023-02-13T11:37:21.459Z,9.29
2023-02-13T11:38:21.420Z,9.34
2023-02-13T11:39:21.454Z,9.47
2023-02-13T11:40:21.424Z,9.57
2023-02-13T11:41:21.397Z,9.63
2023-02-13T11:42:21.498Z,9.70
2023-02-13T11:43:21.364Z,9.77
2023-02-13T11:44:21.365Z,9.83
2023-02-13T11:45:21.451Z,9.81
2023-02-13T11:46:21.460Z,9.83
2023-02-13T11:47:21.309Z,9.93
2023-02-13T11:48:21.297Z,9.96
2023-02-13T11:49:21.366Z,9.94
2023-02-13T11:50:21.440Z,9.93
2023-02-13T11:51:21.272Z,10.02
2023-02-13T11:52:21.436Z,9.99
2023-02-13T11:53:21.533Z,10.08
2023-02-13T11:54:21.545Z,10.12
2023-02-13T11:55:21.255Z,10.18
2023-02-13T11:56:26.874Z,10.26
2023-02-13T11:57:26.113Z,10.21
2023-02-13T11:58:21.608Z,10.16
2023-02-13T11:59:21.217Z,10.21
2023-02-13T12:00:22.329Z,10.10
2023-02-13T12:01:21.154Z,10.20
2023-02-13T12:02:21.554Z,10.20
2023-02-13T12:03:21.498Z,10.27
2023-02-13T12:04:36.266Z,10.30
2023-02-13T12:05:21.220Z,10.36
2023-02-13T12:06:30.040Z,10.45
2023-02-13T12:07:30.065Z,10.57
2023-02-13T12:08:22.067Z,10.57
2023-02-13T12:09:21.129Z,10.46
2023-02-13T12:10:21.339Z,10.38
2023-02-13T12:11:21.017Z,10.34
2023-02-13T12:12:20.996Z,10.42
2023-02-13T12:13:21.051Z,10.55
2023-02-13T12:14:20.957Z,10.67
2023-02-13T12:15:22.553Z,10.68
2023-02-13T12:16:21.077Z,10.76
2023-02-13T12:17:31.453Z,10.82
2023-02-13T12:18:21.713Z,10.85
2023-02-13T12:19:20.934Z,10.86
2023-02-13T12:20:21.725Z,10.73
2023-02-13T12:21:21.657Z,10.73
2023-02-13T12:22:20.960Z,10.85
2023-02-13T12:23:20.909Z,10.82
2023-02-13T12:24:20.891Z,10.80
2023-02-13T12:25:20.820Z,10.82
2023-02-13T12:26:22.098Z,10.83
2023-02-13T12:27:20.977Z,10.85
2023-02-13T12:28:20.972Z,10.86
2023-02-13T12:29:22.340Z,10.93
2023-02-13T12:30:22.142Z,10.97
2023-02-13T12:31:21.419Z,10.93
2023-02-13T12:32:21.077Z,10.91
2023-02-13T12:33:20.793Z,10.87
2023-02-13T12:34:20.736Z,10.86
2023-02-13T12:35:20.717Z,10.82
2023-02-13T12:36:20.792Z,10.86
2023-02-13T12:37:20.655Z,10.93
2023-02-13T12:38:20.795Z,10.95
2023-02-13T12:39:20.638Z,11.03
2023-02-13T12:40:20.619Z,11.04
2023-02-13T12:41:20.603Z,10.97
2023-02-13T12:42:20.673Z,11.05
2023-02-13T12:43:20.599Z,11.11
2023-02-13T12:44:20.592Z,11.18
2023-02-13T12:45:20.569Z,11.18
2023-02-13T12:46:20.560Z,11.27
2023-02-13T12:47:20.578Z,11.33
2023-02-13T12:48:20.517Z,11.36
2023-02-13T12:49:20.527Z,11.37
2023-02-13T12:50:21.483Z,11.38
2023-02-13T12:51:20.573Z,11.33
2023-02-13T12:52:20.513Z,11.31
2023-02-13T12:53:22.765Z,11.28
2023-02-13T12:54:20.419Z,11.20
2023-02-13T12:55:20.435Z,11.15
2023-02-13T12:56:20.409Z,10.97
2023-02-13T12:57:20.395Z,10.78
2023-02-13T12:58:20.409Z,10.82
2023-02-13T12:59:20.459Z,10.85
2023-02-13T13:00:20.335Z,10.76
2023-02-13T13:01:20.363Z,10.76
2023-02-13T13:02:20.393Z,10.79
2023-02-13T13:03:20.308Z,10.78
2023-02-13T13:04:20.318Z,10.83
2023-02-13T13:05:20.273Z,10.80
2023-02-13T13:06:20.315Z,10.91
2023-02-13T13:07:20.254Z,11.00
2023-02-13T13:08:20.287Z,11.09
2023-02-13T13:09:20.484Z,11.11
2023-02-13T13:10:20.206Z,11.03
2023-02-13T13:11:20.263Z,11.09
2023-02-13T13:12:20.181Z,11.03
2023-02-13T13:13:20.237Z,10.93
2023-02-13T13:14:20.211Z,10.97
2023-02-13T13:15:20.154Z,10.91